Latest Coastal Weather Observations for Cerberus

IDV60701

Issued at 2:41 pm EST Monday 31 August 2015 (issued every 10 minutes, with the page automatically refreshed every 10 minutes)

About coastal observations | Map of coastal stations | Coastal observations for VIC | Marine services | Other Formats
Station Details ID: 086361 Name: CERBERUS Lat: -38.36 Lon: 145.18 Height: 12.69 m
Data from the previous 72 hours. | See also: Recent months at Cerberus
Date/Time
EST
Temp

°C
Wind Pressure Rain
since 9am
mm
Weather Cloud Vis
km
Sea
Height
m
Swell
Dir
 
Speed
knots
Gust
knots
hPa Trend Height
m
Period
s
Dir
31/02:30pm 10.9 SE 3 7 1019.1 - 0.0 - - - - - - -
31/02:00pm 11.3 SSE 7 11 1019.2 - 0.0 - - - - - - -
31/01:30pm 11.4 SSE 4 8 1019.5 - 0.0 - - - - - - -
31/01:00pm 11.6 SE 3 9 1019.8 - 0.0 - - - - - - -
31/12:30pm 11.3 SSE 3 8 1020.1 - 0.0 - - - - - - -
31/12:00pm 12.7 SE 2 9 1020.4 - 0.0 - - - - - - -
31/11:30am 11.0 CALM 0 0 1020.8 - 0.0 - - - - - - -
31/11:00am 10.8 CALM 0 0 1020.9 - 0.0 - - - - - - -
31/10:30am 10.6 CALM 0 0 1020.9 - 0.0 - - - - - - -
31/10:00am 10.8 CALM 0 5 1021.1 - 0.0 - - - - - - -
31/09:30am 10.7 CALM 0 0 1021.1 - 0.0 - - - - - - -
31/09:00am 10.1 CALM 0 0 1021.1 - 0.0 - - - - - - -
31/08:30am 9.7 CALM 0 0 1021.1 - 0.0 - - - - - - -
31/08:00am 8.5 CALM 0 0 1021.0 - 0.0 - - - - - - -
31/07:30am 7.9 CALM 0 0 1020.9 - 0.0 - - - - - - -
31/07:00am 7.7 CALM 0 0 1020.8 - 0.0 - - - - - - -
31/06:30am 7.4 CALM 0 0 1020.5 - 0.0 - - - - - - -
31/06:00am 7.4 CALM 0 0 1020.6 - 0.0 - - - - - - -
31/05:30am 7.2 CALM 0 0 1020.4 - 0.0 - - - - - - -
31/05:00am 6.9 CALM 0 0 1020.5 - 0.0 - - - - - - -
31/04:30am 7.2 CALM 0 0 1020.5 - 0.0 - - - - - - -
31/04:00am 7.3 CALM 0 0 1020.5 - 0.0 - - - - - - -
31/03:30am 7.4 CALM 0 0 1020.5 - 0.0 - - - - - - -
31/03:00am 7.6 CALM 0 0 1020.5 - 0.0 - - - - - - -
31/02:30am 7.0 CALM 0 0 1021.0 - 0.0 - - - - - - -
31/02:00am 6.8 CALM 0 0 1021.5 - 0.0 - - - - - - -
31/01:30am 7.1 CALM 0 0 1021.8 - 0.0 - - - - - - -
31/01:00am 7.6 CALM 0 0 1022.0 - 0.0 - - - - - - -
31/12:30am 7.7 CALM 0 0 1022.1 - 0.0 - - - - - - -
31/12:00am 7.9 WSW 1 6 1022.3 - 0.0 - - - - - - -
 
Date/Time
EST
Temp

°C
Wind Pressure Rain
since 9am
mm
Weather Cloud Vis
km
Sea
Height
m
Swell
Dir
 
Speed
knots
Gust
knots
hPa Trend Height
m
Period
s
Dir
30/11:30pm 8.7 SE 2 5 1022.6 - 0.0 - - - - - - -
30/11:00pm 9.0 SSE 3 6 1022.8 - 0.0 - - - - - - -
30/10:30pm 9.4 SE 5 9 1023.0 - 0.0 - - - - - - -
30/10:00pm 9.4 SE 2 4 1023.2 - 0.0 - - - - - - -
30/09:30pm 9.5 WSW 2 3 1023.4 - 0.0 - - - - - - -
30/09:00pm 9.7 WSW 3 4 1023.3 - 0.0 - - - - - - -
30/08:30pm 9.6 SW 4 7 1023.4 - 0.0 - - - - - - -
30/08:00pm 9.6 SW 2 3 1023.3 - 0.0 - - - - - - -
30/07:30pm 9.6 SW 5 8 1023.4 - 0.0 - - - - - - -
30/07:00pm 9.5 SW 4 5 1023.4 - 0.0 - - - - - - -
30/06:30pm 9.7 SSE 6 9 1023.3 - 0.0 - - - - - - -
30/06:00pm 9.8 SW 4 7 1023.1 - 0.0 - - - - - - -
30/05:30pm 9.9 S 6 9 1023.0 - 0.0 - - - - - - -
30/05:00pm 10.2 SE 8 11 1023.1 - 0.0 - - - - - - -
30/04:30pm 10.2 SE 9 12 1022.9 - 0.0 - - - - - - -
30/04:00pm 11.2 SE 6 10 1022.9 - 0.0 - - - - - - -
30/03:30pm 10.6 SE 7 10 1023.2 - 0.0 - - - - - - -
30/03:00pm 10.9 SE 7 11 1023.3 - 0.0 - - - - - - -
30/02:30pm 11.1 SSE 8 13 1023.5 - 0.0 - - - - - - -
30/02:00pm 11.1 SSE 9 14 1023.5 - 0.0 - - - - - - -
30/01:30pm 11.3 SE 9 15 1023.7 - 0.0 - - - - - - -
30/01:00pm 11.2 SE 10 15 1023.7 - 0.0 - - - - - - -
30/12:30pm 11.4 SSE 9 15 1024.0 - 0.0 - - - - - - -
30/12:00pm 11.7 SSE 8 13 1024.2 - 0.0 - - - - - - -
30/11:30am 11.8 SSE 8 12 1024.7 - 0.0 - - - - - - -
30/11:00am 11.5 SE 9 13 1024.9 - 0.0 - - - - - - -
30/10:30am 11.3 SSE 8 12 1024.9 - 0.0 - - - - - - -
30/10:00am 11.5 S 8 12 1025.0 - 0.0 - - - - - - -
30/09:30am 11.4 S 7 12 1025.1 - 0.0 - - - - - - -
30/09:00am 10.4 SSW 5 10 1025.2 - 0.2 - - - - - - -
30/08:30am 10.4 WSW 7 11 1025.0 - 0.2 - - - - - - -
30/08:00am 9.6 CALM 0 0 1024.9 - 0.2 - - - - - - -
30/07:30am 8.5 CALM 0 0 1024.6 - 0.2 - - - - - - -
30/07:00am 8.1 CALM 0 0 1024.4 - 0.2 - - - - - - -
30/06:30am 8.6 CALM 0 0 1024.0 - 0.2 - - - - - - -
30/06:00am 9.1 CALM 0 0 1023.8 - 0.2 - - - - - - -
30/05:30am 9.5 CALM 0 0 1023.9 - 0.2 - - - - - - -
30/05:00am 9.6 CALM 0 0 1023.7 - 0.2 - - - - - - -
30/04:30am 9.8 SSE 1 8 1023.5 - 0.2 - - - - - - -
30/04:00am 9.7 SSW 1 8 1023.6 - 0.2 - - - - - - -
30/03:30am 9.9 CALM 0 0 1023.7 - 0.2 - - - - - - -
30/03:00am 9.9 SSE 2 8 1023.8 - 0.2 - - - - - - -
30/02:30am 9.9 SE 4 9 1023.8 - 0.2 - - - - - - -
30/02:00am 10.0 SE 3 10 1024.0 - 0.2 - - - - - - -
30/01:30am 10.1 SE 7 13 1024.3 - 0.2 - - - - - - -
30/01:00am 10.2 SE 8 13 1024.5 - 0.2 - - - - - - -
30/12:30am 10.2 SE 8 13 1024.7 - 0.2 - - - - - - -
30/12:00am 10.3 SE 5 11 1024.8 - 0.2 - - - - - - -
 
Date/Time
EST
Temp

°C
Wind Pressure Rain
since 9am
mm
Weather Cloud Vis
km
Sea
Height
m
Swell
Dir
 
Speed
knots
Gust
knots
hPa Trend Height
m
Period
s
Dir
29/11:30pm 9.7 SE 8 15 1025.0 - 0.2 - - - - - - -
29/11:00pm 10.2 SE 10 16 1025.2 - 0.2 - - - - - - -
29/10:30pm 10.3 SE 10 16 1025.2 - 0.2 - - - - - - -
29/10:00pm 10.5 SSE 11 18 1025.3 - 0.2 - - - - - - -
29/09:30pm 10.4 SE 11 18 1025.2 - 0.2 - - - - - - -
29/09:00pm 9.7 SSE 11 17 1025.2 - 0.2 - - - - - - -
29/08:30pm 10.7 SSE 10 15 1025.2 - 0.2 - - - - - - -
29/08:00pm 10.4 SSE 9 16 1025.1 - 0.2 - - - - - - -
29/07:30pm 10.7 SSE 11 17 1025.0 - 0.2 - - - - - - -
29/07:00pm 9.8 S 11 20 1025.1 - 0.2 - - - - - - -
29/06:30pm 10.7 SSE 11 20 1024.6 - 0.2 - - - - - - -
29/06:00pm 10.2 S 12 22 1024.4 - 0.2 - - - - - - -
29/05:30pm 10.1 SSE 11 16 1024.3 - 0.2 - - - - - - -
29/05:00pm 10.6 S 10 16 1024.1 - 0.2 - - - - - - -
29/04:30pm 10.5 S 10 16 1024.2 - 0.0 - - - - - - -
29/04:00pm 11.1 S 12 19 1024.0 - 0.0 - - - - - - -
29/03:30pm 10.2 S 11 21 1024.2 - 0.0 - - - - - - -
29/03:00pm 11.0 S 13 21 1024.1 - 0.0 - - - - - - -
29/02:30pm 11.6 S 14 23 1024.1 - 0.0 - - - - - - -
29/02:00pm 10.7 S 15 23 1024.2 - 0.0 - - - - - - -
29/01:30pm 11.1 S 14 23 1024.4 - 0.0 - - - - - - -
29/01:00pm 10.7 S 14 21 1024.7 - 0.0 - - - - - - -
29/12:32pm 10.9 SSW 15 25 1025.2 - 0.0 - - - - - - -
29/12:30pm 10.7 SSW 16 25 1025.2 - 0.0 - - - - - - -
29/12:28pm 11.2 SSW 15 25 1025.2 - 0.0 - - - - - - -
29/12:00pm 10.7 SSW 13 19 1025.4 - 0.0 - - - - - - -
29/11:36am 10.7 SSW 15 27 1025.6 - 0.0 - - - - - - -
29/11:30am 10.8 SW 14 22 1025.5 - 0.0 - - - - - - -
29/11:00am 10.6 SW 14 23 1025.6 - 0.0 - - - - - - -
29/10:30am 10.3 SW 14 22 1025.7 - 0.0 - - - - - - -
29/10:00am 9.4 SW 14 22 1025.7 - 0.0 - - - - - - -
29/09:30am 9.2 SW 15 23 1026.0 - 0.0 - - - - - - -
29/09:00am 9.8 SSW 13 21 1026.1 - 0.2 Recent precip. - - - - - -
29/08:30am 9.1 SW 10 16 1026.1 - 0.0 - - - - - - -
29/08:00am 8.9 SW 9 17 1026.1 - 0.0 - - - - - - -
29/07:30am 8.0 SW 11 18 1026.0 - 0.0 - - - - - - -
29/07:00am 8.2 SSW 12 19 1025.6 - 0.0 - - - - - - -
29/06:30am 8.8 SSW 11 20 1025.4 - 0.0 - - - - - - -
29/06:00am 8.7 SSW 9 16 1025.5 - 0.0 - - - - - - -
29/05:30am 8.5 SSW 9 14 1025.5 - 0.0 - - - - - - -
29/05:00am 8.5 SSW 10 14 1025.4 - 0.0 - - - - - - -
29/04:30am 8.5 S 8 13 1025.4 - 0.0 - - - - - - -
29/04:00am 8.0 S 8 13 1025.5 - 0.0 - - - - - - -
29/03:30am 8.2 S 7 13 1025.7 - 0.0 - - - - - - -
29/03:00am 8.0 S 7 13 1025.9 - 0.0 - - - - - - -
29/02:30am 8.0 S 9 13 1025.9 - 0.0 - - - - - - -
29/02:00am 8.4 S 6 12 1026.0 - 0.0 - - - - - - -
29/01:30am 8.7 S 8 13 1026.2 - 0.0 - - - - - - -
29/01:00am 7.9 SSE 2 8 1026.3 - 0.0 - - - - - - -
29/12:30am 8.4 S 7 11 1026.1 - 0.0 - - - - - - -
29/12:00am 5.7 CALM 0 0 1026.0 - 0.0 - - - - - - -
 
Date/Time
EST
Temp

°C
Wind Pressure Rain
since 9am
mm
Weather Cloud Vis
km
Sea
Height
m
Swell
Dir
 
Speed
knots
Gust
knots
hPa Trend Height
m
Period
s
Dir
28/11:30pm 7.2 CALM 0 0 1026.1 - 0.0 - - - - - - -
28/11:00pm 7.9 SSE 2 8 1026.3 - 0.0 - - - - - - -
28/10:30pm 8.3 SSW 1 9 1026.2 - 0.0 - - - - - - -
28/10:00pm 6.5 CALM 0 6 1026.2 - 0.0 - - - - - - -
28/09:30pm 6.4 CALM 0 0 1026.1 - 0.0 - - - - - - -
28/09:00pm 7.0 SW 4 6 1025.9 - 0.0 - - - - - - -
28/08:30pm 7.3 SW 3 5 1025.8 - 0.0 - - - - - - -
28/08:00pm 8.0 SW 5 7 1025.7 - 0.0 - - - - - - -
28/07:30pm 8.2 SSE 4 6 1025.6 - 0.0 - - - - - - -
28/07:00pm 8.9 SSE 5 9 1025.5 - 0.0 - - - - - - -
28/06:30pm 8.8 SE 5 9 1025.2 - 0.0 - - - - - - -
28/06:00pm 9.3 SE 5 8 1025.0 - 0.0 - - - - - - -
28/05:30pm 9.9 SE 7 12 1024.8 - 0.0 - - - - - - -
28/05:00pm 10.1 SSE 8 11 1024.6 - 0.0 - - - - - - -
28/04:30pm 10.3 S 7 11 1024.5 - 0.0 - - - - - - -
28/04:00pm 11.0 SSE 9 13 1024.6 - 0.0 - - - - - - -
28/03:30pm 11.2 SSE 10 17 1024.7 - 0.0 - - - - - - -
28/03:00pm 11.4 SSE 12 18 1024.6 - 0.0 - - - - - - -

Other Formats:

Comma delimited format used in spreadsheet applications
http://www.bom.gov.au/fwo/IDV60701/IDV60701.94898.axf

JavaScript Object Notation format (JSON) in row-major order
http://www.bom.gov.au/fwo/IDV60701/IDV60701.94898.json